createdAt,value
2019-03-23T00:00:20.008Z,59.20
2019-03-23T00:02:47.894Z,59.20
2019-03-23T00:05:15.832Z,59.60
2019-03-23T00:07:44.673Z,59.60
2019-03-23T00:10:12.597Z,59.80
2019-03-23T00:12:41.436Z,59.70
2019-03-23T00:15:10.004Z,60.00
2019-03-23T00:17:39.943Z,60.00
2019-03-23T00:20:09.855Z,60.30
2019-03-23T00:22:37.797Z,60.20
2019-03-23T00:25:05.681Z,60.40
2019-03-23T00:27:34.609Z,60.20
2019-03-23T05:30:39.893Z,66.20
2019-03-23T05:33:13.489Z,66.90
2019-03-23T05:35:41.394Z,67.20
2019-03-23T05:41:38.981Z,67.10
2019-03-23T05:44:06.912Z,67.30
2019-03-23T05:46:34.790Z,66.50
2019-03-23T05:49:02.693Z,66.50
2019-03-23T05:51:30.576Z,66.10
2019-03-23T05:53:58.475Z,66.10
2019-03-23T05:56:26.359Z,66.90
2019-03-23T05:58:54.252Z,67.30
2019-03-23T06:01:22.141Z,66.70
2019-03-23T06:03:50.049Z,66.20
2019-03-23T06:06:18.016Z,65.70
2019-03-23T06:08:54.542Z,63.70
2019-03-23T06:11:15.629Z,63.30
2019-03-23T06:13:43.563Z,63.60
2019-03-23T06:16:11.449Z,64.60
2019-03-23T06:18:39.353Z,65.60
2019-03-23T06:21:07.237Z,65.80
2019-03-23T06:23:35.140Z,66.10
2019-03-23T06:26:03.064Z,66.20
2019-03-23T06:28:30.943Z,64.60
2019-03-23T06:30:58.833Z,63.30
2019-03-23T06:33:26.776Z,63.60
2019-03-23T06:35:54.676Z,64.70
2019-03-23T06:38:22.765Z,64.40
2019-03-23T06:40:50.761Z,65.00
2019-03-23T06:43:18.674Z,64.70
2019-03-23T06:45:46.574Z,62.70
2019-03-23T06:48:14.459Z,63.40
2019-03-23T06:50:42.348Z,63.90
2019-03-23T06:53:10.243Z,62.40
2019-03-23T06:55:39.576Z,61.80
2019-03-23T06:58:07.493Z,61.40
2019-03-23T07:00:35.386Z,61.20
2019-03-23T07:03:03.263Z,61.00
2019-03-23T07:05:31.165Z,61.90
2019-03-23T07:07:59.117Z,62.90
2019-03-23T07:10:26.996Z,63.50
2019-03-23T07:12:54.903Z,63.10
2019-03-23T07:15:22.873Z,62.20
2019-03-23T07:17:50.772Z,63.00
2019-03-23T07:20:18.730Z,62.70
2019-03-23T07:22:46.632Z,61.70
2019-03-23T07:25:14.572Z,61.10
2019-03-23T07:27:42.489Z,60.40
2019-03-23T07:30:12.054Z,59.80
2019-03-23T07:32:40.021Z,60.50
2019-03-23T07:35:07.906Z,60.80
2019-03-23T07:37:35.798Z,59.30
2019-03-23T07:40:06.931Z,58.30
2019-03-23T07:42:34.827Z,58.30
2019-03-23T07:45:04.000Z,57.70
2019-03-23T07:47:31.893Z,58.70
2019-03-23T07:49:59.780Z,58.60
2019-03-23T07:52:27.663Z,58.00
2019-03-23T07:54:55.548Z,58.60
2019-03-23T07:57:44.556Z,59.00
2019-03-23T08:00:20.209Z,58.80
2019-03-23T08:02:48.086Z,58.00
2019-03-23T08:05:15.973Z,57.60
2019-03-23T08:07:43.956Z,56.00
2019-03-23T08:10:13.499Z,55.70
2019-03-23T08:12:41.407Z,56.00
2019-03-23T08:15:09.350Z,55.90
2019-03-23T08:17:37.280Z,56.00
2019-03-23T08:20:05.818Z,55.70
2019-03-23T08:22:33.747Z,55.20
2019-03-23T08:25:02.608Z,56.30
2019-03-23T08:27:30.670Z,56.20
2019-03-23T08:29:58.875Z,56.50
2019-03-23T08:32:26.856Z,57.20
2019-03-23T08:34:54.780Z,57.00
2019-03-23T08:37:22.763Z,56.50
2019-03-23T08:39:50.811Z,56.40
2019-03-23T08:42:18.931Z,55.70
2019-03-23T08:44:46.955Z,55.60
2019-03-23T08:47:15.215Z,54.70
2019-03-23T08:49:43.310Z,54.80
2019-03-23T08:52:11.393Z,54.50
2019-03-23T08:54:39.409Z,53.90
2019-03-23T08:57:07.665Z,53.20
2019-03-23T08:59:35.764Z,52.40
2019-03-23T09:02:03.821Z,51.80
2019-03-23T09:04:31.983Z,51.90
2019-03-23T09:07:00.094Z,52.40
2019-03-23T09:09:28.089Z,52.50
2019-03-23T09:11:56.138Z,52.90
2019-03-23T09:14:24.284Z,53.40
2019-03-23T09:16:52.248Z,53.70
2019-03-23T09:19:20.212Z,54.40
2019-03-23T09:21:48.266Z,55.30
2019-03-23T09:24:16.203Z,55.00
2019-03-23T09:26:44.358Z,55.30
2019-03-23T09:29:12.256Z,54.00
2019-03-23T09:31:42.773Z,53.60
2019-03-23T09:34:11.189Z,53.30
2019-03-23T09:36:41.306Z,53.50
2019-03-23T09:39:08.733Z,53.70
2019-03-23T09:41:36.660Z,53.50
2019-03-23T09:44:04.622Z,53.00
2019-03-23T09:46:32.603Z,53.20
2019-03-23T09:49:00.570Z,53.10
2019-03-23T09:51:29.399Z,53.10
2019-03-23T09:53:57.409Z,53.10
2019-03-23T09:56:25.314Z,53.20
2019-03-23T09:58:53.205Z,52.70
2019-03-23T10:01:21.180Z,51.90
2019-03-23T10:03:49.066Z,52.30
2019-03-23T10:06:17.228Z,52.20
2019-03-23T10:08:46.425Z,50.90
2019-03-23T10:11:14.614Z,50.50
2019-03-23T10:13:42.618Z,49.80
2019-03-23T10:16:10.541Z,49.80
2019-03-23T10:18:38.493Z,49.50
2019-03-23T10:21:06.385Z,48.50
2019-03-23T10:23:34.356Z,48.80
2019-03-23T10:26:02.311Z,48.50
2019-03-23T10:28:30.309Z,48.20
2019-03-23T10:30:58.257Z,47.90
2019-03-23T10:33:26.227Z,47.40
2019-03-23T10:35:54.193Z,47.10
2019-03-23T10:38:22.167Z,46.20
2019-03-23T10:40:50.154Z,45.70
2019-03-23T10:43:18.213Z,45.80
2019-03-23T10:45:46.194Z,45.50
2019-03-23T10:48:16.216Z,44.40
2019-03-23T10:50:45.210Z,43.60
2019-03-23T10:53:22.752Z,44.80
2019-03-23T10:55:45.747Z,44.50
2019-03-23T10:58:15.656Z,44.10
2019-03-23T11:00:43.846Z,44.50
2019-03-23T11:03:11.786Z,44.40
2019-03-23T11:05:39.684Z,44.40
2019-03-23T11:08:07.982Z,44.20
2019-03-23T11:10:41.708Z,44.20
2019-03-23T11:13:05.518Z,43.40
2019-03-23T11:15:33.461Z,42.40
2019-03-23T11:18:01.353Z,42.80
2019-03-23T11:20:29.296Z,43.10
2019-03-23T11:22:57.297Z,42.70
2019-03-23T11:25:25.229Z,42.90
2019-03-23T11:27:53.125Z,42.30
2019-03-23T11:30:21.083Z,42.10
2019-03-23T11:32:48.979Z,40.90
2019-03-23T11:35:17.015Z,41.20
2019-03-23T11:37:45.194Z,39.10
2019-03-23T11:40:13.842Z,39.30
2019-03-23T11:42:49.657Z,39.90
2019-03-23T11:45:12.004Z,38.30
2019-03-23T11:47:39.981Z,37.60
2019-03-23T11:50:10.892Z,37.80
2019-03-23T11:52:38.784Z,38.10
2019-03-23T11:55:06.910Z,36.60
2019-03-23T11:57:34.824Z,35.30
2019-03-23T12:00:04.259Z,35.40
2019-03-23T12:02:32.292Z,35.10
2019-03-23T12:05:00.582Z,34.90
2019-03-23T12:07:28.560Z,35.50
2019-03-23T12:09:56.486Z,35.00
2019-03-23T12:12:24.490Z,34.20
2019-03-23T12:14:52.445Z,34.40
2019-03-23T12:17:20.442Z,34.50
2019-03-23T12:19:48.333Z,35.30
2019-03-23T12:22:16.254Z,34.00
2019-03-23T12:24:44.208Z,34.30
2019-03-23T12:27:12.872Z,32.80
2019-03-23T12:29:40.857Z,33.20
2019-03-23T12:32:08.858Z,33.30
2019-03-23T12:34:36.805Z,33.00
2019-03-23T12:37:04.789Z,32.90
2019-03-23T12:39:32.744Z,33.20
2019-03-23T12:42:00.750Z,32.30
2019-03-23T12:44:28.716Z,32.20
2019-03-23T12:46:56.630Z,32.20
2019-03-23T12:49:24.625Z,32.40
2019-03-23T12:51:52.526Z,32.00
2019-03-23T12:54:20.425Z,31.40
2019-03-23T12:56:48.335Z,30.80
2019-03-23T12:59:16.250Z,32.30
2019-03-23T13:01:44.236Z,31.50
2019-03-23T13:04:12.140Z,31.60
2019-03-23T13:06:40.046Z,32.80
2019-03-23T13:09:08.015Z,32.10
2019-03-23T13:11:36.292Z,32.00
2019-03-23T13:14:04.373Z,31.70
2019-03-23T13:16:32.442Z,30.10
2019-03-23T13:19:00.457Z,29.80
2019-03-23T13:21:28.364Z,31.40
2019-03-23T13:23:56.542Z,29.70
2019-03-23T13:26:24.501Z,30.10
2019-03-23T13:28:52.408Z,31.60
2019-03-23T13:31:39.815Z,30.90
2019-03-23T13:34:07.727Z,30.30
2019-03-23T13:36:35.624Z,30.10
2019-03-23T13:39:05.252Z,30.20
2019-03-23T13:41:33.173Z,30.10
2019-03-23T13:44:01.116Z,31.10
2019-03-23T13:46:30.820Z,30.20
2019-03-23T13:48:58.942Z,29.50
2019-03-23T13:51:26.914Z,30.10
2019-03-23T13:53:54.887Z,29.40
2019-03-23T13:56:22.981Z,29.30
2019-03-23T13:58:52.754Z,29.80
2019-03-23T14:01:20.754Z,29.10
2019-03-23T14:03:48.664Z,30.00
2019-03-23T14:06:16.558Z,29.50
2019-03-23T14:08:44.474Z,30.40
2019-03-23T14:11:12.374Z,30.00
2019-03-23T14:13:40.923Z,29.80
2019-03-23T14:16:09.010Z,30.00
2019-03-23T14:18:37.010Z,30.70
2019-03-23T14:21:04.982Z,29.30
2019-03-23T14:23:32.906Z,29.20
2019-03-23T14:26:00.798Z,29.30
2019-03-23T14:28:28.777Z,29.80
2019-03-23T14:30:56.672Z,30.00
2019-03-23T14:33:24.687Z,29.40
2019-03-23T14:35:52.636Z,29.00
2019-03-23T14:38:20.546Z,29.00
2019-03-23T14:40:48.456Z,29.20
2019-03-23T14:43:16.397Z,29.30
2019-03-23T14:45:44.338Z,29.20
2019-03-23T14:48:12.260Z,28.90
2019-03-23T14:50:40.220Z,29.60
2019-03-23T14:53:08.125Z,29.50
2019-03-23T14:55:37.479Z,28.60
2019-03-23T14:58:05.617Z,28.50
2019-03-23T15:00:33.510Z,28.10
2019-03-23T15:03:01.413Z,27.80
2019-03-23T15:05:29.491Z,29.00
2019-03-23T15:07:57.380Z,28.70
2019-03-23T15:10:25.300Z,28.30
2019-03-23T15:12:53.188Z,28.10
2019-03-23T15:15:21.090Z,29.80
2019-03-23T15:17:49.245Z,28.40
2019-03-23T15:20:17.270Z,29.50
2019-03-23T15:22:46.820Z,29.20
2019-03-23T15:25:14.780Z,29.30
2019-03-23T15:27:42.685Z,28.60
2019-03-23T15:30:10.599Z,29.00
2019-03-23T15:32:38.575Z,29.00
2019-03-23T15:35:06.757Z,28.30
2019-03-23T15:37:34.652Z,28.80
2019-03-23T15:40:02.613Z,28.40
2019-03-23T15:42:30.493Z,28.80
2019-03-23T15:44:58.457Z,28.10
2019-03-23T15:47:26.341Z,28.30
2019-03-23T15:49:54.240Z,29.00
2019-03-23T15:52:22.153Z,29.10
2019-03-23T15:54:50.137Z,28.50
2019-03-23T15:57:18.036Z,28.60
2019-03-23T15:59:45.960Z,28.60
2019-03-23T16:02:13.847Z,28.30
2019-03-23T16:04:41.798Z,28.90
2019-03-23T16:07:09.906Z,29.00
2019-03-23T16:09:37.837Z,28.30
2019-03-23T16:12:05.736Z,29.00
2019-03-23T16:14:33.696Z,28.30
2019-03-23T16:17:01.656Z,28.70
2019-03-23T16:19:29.634Z,28.40
2019-03-23T16:21:57.591Z,28.10
2019-03-23T16:24:25.506Z,28.40
2019-03-23T16:26:53.467Z,28.30
2019-03-23T16:29:21.389Z,28.30
2019-03-23T16:31:49.297Z,28.50
2019-03-23T16:34:17.279Z,28.60
2019-03-23T16:36:45.250Z,29.40
2019-03-23T16:39:13.168Z,28.80
2019-03-23T16:41:41.084Z,28.60
2019-03-23T16:44:09.061Z,28.60
2019-03-23T16:46:36.985Z,29.00
2019-03-23T16:49:04.959Z,28.70
2019-03-23T16:51:32.877Z,28.90
2019-03-23T16:54:00.764Z,28.70
2019-03-23T16:56:28.649Z,28.80
2019-03-23T16:58:56.635Z,28.80
2019-03-23T17:01:24.857Z,29.20
2019-03-23T17:03:52.822Z,29.70
2019-03-23T17:06:20.745Z,29.20
2019-03-23T17:08:48.681Z,30.00
2019-03-23T17:11:16.665Z,31.00
2019-03-23T17:13:44.650Z,32.00
2019-03-23T17:16:12.872Z,31.70
2019-03-23T17:18:40.833Z,32.00
2019-03-23T17:21:08.761Z,31.90
2019-03-23T17:23:37.554Z,33.00
2019-03-23T17:26:05.649Z,32.40
2019-03-23T17:28:33.677Z,32.10
2019-03-23T17:31:02.309Z,32.60
2019-03-23T17:33:30.295Z,33.00
2019-03-23T17:35:58.239Z,33.00
2019-03-23T17:38:26.130Z,33.00
2019-03-23T17:40:54.133Z,33.20
2019-03-23T17:43:22.189Z,34.30
2019-03-23T17:45:50.131Z,34.10
2019-03-23T17:48:18.019Z,34.90
2019-03-23T17:50:45.943Z,34.50
2019-03-23T17:53:13.851Z,34.90
2019-03-23T17:55:41.828Z,36.30
2019-03-23T17:58:09.774Z,35.80
2019-03-23T18:00:37.672Z,35.80
2019-03-23T18:03:05.572Z,35.10
2019-03-23T18:05:33.491Z,35.60
2019-03-23T18:08:01.415Z,34.80
2019-03-23T18:10:29.391Z,35.10
2019-03-23T18:12:57.305Z,35.70
2019-03-23T18:15:25.296Z,35.30
2019-03-23T18:17:53.282Z,35.20
2019-03-23T18:20:21.206Z,35.60
2019-03-23T18:22:49.177Z,35.90
2019-03-23T18:25:17.089Z,35.90
2019-03-23T18:27:45.007Z,35.10
2019-03-23T18:30:32.846Z,36.40
2019-03-23T18:33:01.280Z,36.70
2019-03-23T18:35:29.195Z,37.70
2019-03-23T18:37:57.721Z,38.50
2019-03-23T18:40:25.625Z,38.50
2019-03-23T18:42:53.819Z,38.90
2019-03-23T18:45:22.278Z,38.20
2019-03-23T18:47:50.640Z,39.20
2019-03-23T18:50:18.572Z,38.90
2019-03-23T18:52:46.779Z,39.80
2019-03-23T18:55:14.720Z,39.50
2019-03-23T18:57:42.621Z,39.60
2019-03-23T19:00:10.811Z,39.60
2019-03-23T19:02:38.817Z,40.00
2019-03-23T19:05:06.740Z,39.70
2019-03-23T19:07:34.645Z,39.50
2019-03-23T19:10:02.560Z,40.90
2019-03-23T19:12:30.495Z,40.50
2019-03-23T19:14:58.389Z,40.40
2019-03-23T19:17:26.334Z,40.90
2019-03-23T19:19:54.329Z,41.40
2019-03-23T19:22:22.872Z,41.90
2019-03-23T19:24:50.770Z,42.60
2019-03-23T19:27:18.738Z,42.80
2019-03-23T19:29:46.694Z,42.50
2019-03-23T19:32:14.691Z,42.90
2019-03-23T19:34:45.022Z,42.70
2019-03-23T19:37:14.114Z,42.50
2019-03-23T19:39:42.093Z,41.60
2019-03-23T19:42:10.145Z,41.50
2019-03-23T19:44:38.116Z,41.50
2019-03-23T19:47:06.098Z,42.10
2019-03-23T19:49:34.228Z,42.80
2019-03-23T19:52:02.275Z,42.40
2019-03-23T19:54:30.284Z,41.70
2019-03-23T19:56:58.285Z,42.50
2019-03-23T19:59:26.312Z,42.40
2019-03-23T20:01:54.226Z,42.30
2019-03-23T20:04:22.148Z,43.30
2019-03-23T20:06:50.765Z,43.20
2019-03-23T20:09:18.793Z,42.80
2019-03-23T20:11:46.797Z,42.20
2019-03-23T20:14:14.782Z,43.30
2019-03-23T20:16:42.789Z,43.70
2019-03-23T20:19:10.931Z,43.70
2019-03-23T20:21:38.908Z,43.70
2019-03-23T20:24:06.829Z,43.70
2019-03-23T20:26:34.743Z,43.40
2019-03-23T20:29:02.705Z,44.20
2019-03-23T20:31:30.612Z,43.40
2019-03-23T20:33:58.747Z,43.80
2019-03-23T20:36:26.670Z,44.50
2019-03-23T20:38:54.671Z,45.20
2019-03-23T20:41:22.597Z,45.40
2019-03-23T20:43:50.615Z,46.00
2019-03-23T20:46:18.589Z,45.70
2019-03-23T20:48:46.578Z,46.50
2019-03-23T20:51:14.590Z,45.90
2019-03-23T20:53:42.573Z,45.90
2019-03-23T20:56:10.546Z,46.50
2019-03-23T20:58:38.477Z,46.60
2019-03-23T21:01:06.441Z,46.30
2019-03-23T21:03:34.378Z,46.90
2019-03-23T21:06:02.443Z,47.30
2019-03-23T21:08:30.497Z,47.30
2019-03-23T21:10:58.720Z,46.90
2019-03-23T21:13:26.766Z,47.40
2019-03-23T21:15:54.684Z,47.00
2019-03-23T21:18:22.719Z,47.20
2019-03-23T21:20:51.030Z,46.70
2019-03-23T21:23:18.985Z,46.80
2019-03-23T21:25:46.999Z,47.50
2019-03-23T21:28:15.014Z,47.20
2019-03-23T21:30:42.953Z,47.00
2019-03-23T21:33:11.055Z,47.50
2019-03-23T21:35:39.059Z,47.70
2019-03-23T21:38:07.070Z,47.90
2019-03-23T21:40:35.290Z,48.40
2019-03-23T21:43:03.374Z,48.10
2019-03-23T21:45:31.346Z,48.20
2019-03-23T21:47:59.359Z,48.20
2019-03-23T21:50:27.358Z,48.40
2019-03-23T21:52:55.293Z,48.20
2019-03-23T21:55:23.242Z,47.70
2019-03-23T21:57:51.233Z,48.20
2019-03-23T22:00:23.570Z,49.00
2019-03-23T22:02:51.468Z,49.00
2019-03-23T22:05:19.414Z,48.60
2019-03-23T22:07:47.297Z,48.90
2019-03-23T22:10:15.197Z,49.10
2019-03-23T22:12:43.173Z,49.40
2019-03-23T22:15:11.088Z,49.60
2019-03-23T22:17:39.075Z,48.80
2019-03-23T22:20:07.461Z,49.30
2019-03-23T22:22:35.368Z,49.20
2019-03-23T22:25:03.654Z,49.50
2019-03-23T22:27:31.566Z,49.90
2019-03-23T22:29:59.461Z,50.20
2019-03-23T22:32:27.349Z,50.30
2019-03-23T22:34:55.252Z,50.00
2019-03-23T22:37:23.149Z,50.80
2019-03-23T22:39:51.075Z,50.50
2019-03-23T22:42:19.098Z,50.80
2019-03-23T22:44:52.460Z,51.70
2019-03-23T22:47:16.606Z,50.60
2019-03-23T22:49:44.521Z,51.20
2019-03-23T22:52:12.412Z,50.60
2019-03-23T22:54:40.325Z,50.50
2019-03-23T22:57:08.218Z,50.50
2019-03-23T22:59:36.124Z,49.90
2019-03-23T23:02:04.037Z,50.50
2019-03-23T23:04:32.049Z,50.80
2019-03-23T23:06:59.950Z,51.30
2019-03-23T23:09:27.853Z,50.20
2019-03-23T23:11:55.746Z,51.50
2019-03-23T23:14:23.656Z,52.80
2019-03-23T23:16:51.542Z,52.70
2019-03-23T23:19:38.857Z,53.10
2019-03-23T23:22:06.745Z,52.90
2019-03-23T23:24:34.652Z,51.70
2019-03-23T23:27:02.581Z,52.20
2019-03-23T23:29:30.491Z,52.10
2019-03-23T23:31:58.381Z,52.00
2019-03-23T23:34:26.288Z,52.50
2019-03-23T23:36:54.297Z,52.90
2019-03-23T23:39:22.211Z,52.20
2019-03-23T23:41:50.105Z,52.70
2019-03-23T23:44:17.994Z,52.70
2019-03-23T23:46:45.894Z,53.90
2019-03-23T23:49:13.801Z,53.70
2019-03-23T23:51:49.784Z,54.10
2019-03-23T23:54:11.297Z,54.40
2019-03-23T23:56:39.337Z,54.20
2019-03-23T23:59:07.308Z,54.40
